sensor_id;sensor_type;location;lat;lon;timestamp;pressure;altitude;pressure_sealevel;temperature
58909;BMP280;44690;48.154;17.102;2023-01-29T00:00:33;100444.19;;;1.06
58909;BMP280;44690;48.154;17.102;2023-01-29T00:02:05;100455.59;;;1.06
58909;BMP280;44690;48.154;17.102;2023-01-29T00:03:37;100445.38;;;1.05
58909;BMP280;44690;48.154;17.102;2023-01-29T00:05:09;100453.41;;;1.05
58909;BMP280;44690;48.154;17.102;2023-01-29T00:06:57;100452.66;;;1.04
58909;BMP280;44690;48.154;17.102;2023-01-29T00:08:30;100445.56;;;1.01
58909;BMP280;44690;48.154;17.102;2023-01-29T00:10:04;100450.91;;;1.01
58909;BMP280;44690;48.154;17.102;2023-01-29T00:11:36;100444.84;;;1.00
58909;BMP280;44690;48.154;17.102;2023-01-29T00:13:08;100457.00;;;1.01
58909;BMP280;44690;48.154;17.102;2023-01-29T00:14:40;100444.84;;;1.00
58909;BMP280;44690;48.154;17.102;2023-01-29T00:16:12;100447.50;;;1.00
58909;BMP280;44690;48.154;17.102;2023-01-29T00:17:44;100461.59;;;1.01
58909;BMP280;44690;48.154;17.102;2023-01-29T00:19:16;100449.44;;;1.00
58909;BMP280;44690;48.154;17.102;2023-01-29T00:20:48;100453.66;;;1.07
58909;BMP280;44690;48.154;17.102;2023-01-29T00:22:20;100462.16;;;1.05
58909;BMP280;44690;48.154;17.102;2023-01-29T00:23:53;100459.22;;;1.03
58909;BMP280;44690;48.154;17.102;2023-01-29T00:25:25;100460.41;;;1.02
58909;BMP280;44690;48.154;17.102;2023-01-29T00:26:57;100463.34;;;1.04
58909;BMP280;44690;48.154;17.102;2023-01-29T00:28:29;100463.06;;;1.02
58909;BMP280;44690;48.154;17.102;2023-01-29T00:30:01;100461.41;;;1.05
58909;BMP280;44690;48.154;17.102;2023-01-29T00:31:43;100470.66;;;1.04
58909;BMP280;44690;48.154;17.102;2023-01-29T00:33:15;100460.13;;;1.00
58909;BMP280;44690;48.154;17.102;2023-01-29T00:34:47;100457.47;;;1.00
58909;BMP280;44690;48.154;17.102;2023-01-29T00:36:20;100460.88;;;1.00
58909;BMP280;44690;48.154;17.102;2023-01-29T00:37:53;100470.09;;;0.99
58909;BMP280;44690;48.154;17.102;2023-01-29T00:39:27;100461.34;;;0.99
58909;BMP280;44690;48.154;17.102;2023-01-29T00:41:18;100466.41;;;0.97
58909;BMP280;44690;48.154;17.102;2023-01-29T00:43:08;100466.41;;;0.97
58909;BMP280;44690;48.154;17.102;2023-01-29T00:44:59;100459.59;;;0.96
58909;BMP280;44690;48.154;17.102;2023-01-29T00:46:31;100464.94;;;0.96
58909;BMP280;44690;48.154;17.102;2023-01-29T00:48:03;100466.31;;;0.91
58909;BMP280;44690;48.154;17.102;2023-01-29T00:49:35;100465.13;;;0.92
58909;BMP280;44690;48.154;17.102;2023-01-29T00:51:07;100463.66;;;0.91
58909;BMP280;44690;48.154;17.102;2023-01-29T00:52:39;100471.19;;;0.93
58909;BMP280;44690;48.154;17.102;2023-01-29T00:54:13;100472.03;;;0.99
58909;BMP280;44690;48.154;17.102;2023-01-29T00:55:45;100468.16;;;1.00
58909;BMP280;44690;48.154;17.102;2023-01-29T00:57:17;100472.66;;;0.94
58909;BMP280;44690;48.154;17.102;2023-01-29T00:58:50;100465.31;;;0.89
58909;BMP280;44690;48.154;17.102;2023-01-29T01:00:22;100470.47;;;0.92
58909;BMP280;44690;48.154;17.102;2023-01-29T01:01:55;100468.44;;;0.87
58909;BMP280;44690;48.154;17.102;2023-01-29T01:03:46;100467.44;;;0.85
58909;BMP280;44690;48.154;17.102;2023-01-29T01:05:19;100461.34;;;0.84
58909;BMP280;44690;48.154;17.102;2023-01-29T01:06:51;100464.31;;;0.86
58909;BMP280;44690;48.154;17.102;2023-01-29T01:08:23;100467.53;;;0.90
58909;BMP280;44690;48.154;17.102;2023-01-29T01:10:15;100459.22;;;0.88
58909;BMP280;44690;48.154;17.102;2023-01-29T01:11:53;100472.78;;;0.85
58909;BMP280;44690;48.154;17.102;2023-01-29T01:13:25;100470.81;;;0.85
58909;BMP280;44690;48.154;17.102;2023-01-29T01:14:57;100472.31;;;0.86
58909;BMP280;44690;48.154;17.102;2023-01-29T01:16:29;100473.25;;;0.83
58909;BMP280;44690;48.154;17.102;2023-01-29T01:18:02;100478.13;;;0.85
58909;BMP280;44690;48.154;17.102;2023-01-29T01:19:35;100467.44;;;0.85
58909;BMP280;44690;48.154;17.102;2023-01-29T01:21:07;100476.66;;;0.84
58909;BMP280;44690;48.154;17.102;2023-01-29T01:22:39;100476.38;;;0.82
58909;BMP280;44690;48.154;17.102;2023-01-29T01:24:11;100474.88;;;0.81
58909;BMP280;44690;48.154;17.102;2023-01-29T01:25:43;100476.81;;;0.80
58909;BMP280;44690;48.154;17.102;2023-01-29T01:27:16;100473.41;;;0.80
58909;BMP280;44690;48.154;17.102;2023-01-29T01:28:50;100471.50;;;0.80
58909;BMP280;44690;48.154;17.102;2023-01-29T01:30:22;100466.88;;;0.81
58909;BMP280;44690;48.154;17.102;2023-01-29T01:31:54;100472.22;;;0.81
58909;BMP280;44690;48.154;17.102;2023-01-29T01:33:27;100472.94;;;0.81
58909;BMP280;44690;48.154;17.102;2023-01-29T01:34:59;100476.94;;;0.86
58909;BMP280;44690;48.154;17.102;2023-01-29T01:36:31;100476.19;;;0.85
58909;BMP280;44690;48.154;17.102;2023-01-29T01:38:03;100477.66;;;0.86
58909;BMP280;44690;48.154;17.102;2023-01-29T01:39:35;100467.72;;;0.87
58909;BMP280;44690;48.154;17.102;2023-01-29T01:41:07;100476.94;;;0.86
58909;BMP280;44690;48.154;17.102;2023-01-29T01:42:39;100483.19;;;0.83
58909;BMP280;44690;48.154;17.102;2023-01-29T01:46:02;100464.69;;;0.79
58909;BMP280;44690;48.154;17.102;2023-01-29T01:49:10;100475.34;;;0.79
58909;BMP280;44690;48.154;17.102;2023-01-29T01:52:18;100479.50;;;0.80
58909;BMP280;44690;48.154;17.102;2023-01-29T01:54:07;100484.28;;;0.76
58909;BMP280;44690;48.154;17.102;2023-01-29T01:56:00;100488.16;;;0.75
58909;BMP280;44690;48.154;17.102;2023-01-29T01:57:32;100495.44;;;0.74
58909;BMP280;44690;48.154;17.102;2023-01-29T01:59:12;100491.38;;;0.79
58909;BMP280;44690;48.154;17.102;2023-01-29T02:00:44;100491.31;;;0.73
58909;BMP280;44690;48.154;17.102;2023-01-29T02:02:17;100494.91;;;0.70
58909;BMP280;44690;48.154;17.102;2023-01-29T02:04:17;100500.41;;;0.67
58909;BMP280;44690;48.154;17.102;2023-01-29T02:06:09;100491.66;;;0.66
58909;BMP280;44690;48.154;17.102;2023-01-29T02:08:00;100499.69;;;0.66
58909;BMP280;44690;48.154;17.102;2023-01-29T02:09:52;100505.94;;;0.63
58909;BMP280;44690;48.154;17.102;2023-01-29T02:11:25;100501.31;;;0.64
58909;BMP280;44690;48.154;17.102;2023-01-29T02:12:57;100503.25;;;0.63
58909;BMP280;44690;48.154;17.102;2023-01-29T02:14:29;100508.59;;;0.63
58909;BMP280;44690;48.154;17.102;2023-01-29T02:16:22;100502.53;;;0.63
58909;BMP280;44690;48.154;17.102;2023-01-29T02:17:54;100503.72;;;0.62
58909;BMP280;44690;48.154;17.102;2023-01-29T02:31:33;100516.78;;;0.60
58909;BMP280;44690;48.154;17.102;2023-01-29T02:35:03;100506.13;;;0.60
58909;BMP280;44690;48.154;17.102;2023-01-29T02:36:57;100505.28;;;0.54
58909;BMP280;44690;48.154;17.102;2023-01-29T02:40:16;100499.69;;;0.52
58909;BMP280;44690;48.154;17.102;2023-01-29T02:46:49;100520.19;;;0.45
58909;BMP280;44690;48.154;17.102;2023-01-29T02:48:24;100511.91;;;0.43
58909;BMP280;44690;48.154;17.102;2023-01-29T02:49:59;100511.91;;;0.43
58909;BMP280;44690;48.154;17.102;2023-01-29T02:51:43;100508.50;;;0.43
58909;BMP280;44690;48.154;17.102;2023-01-29T02:53:19;100518.91;;;0.41
58909;BMP280;44690;48.154;17.102;2023-01-29T02:54:57;100507.88;;;0.48
58909;BMP280;44690;48.154;17.102;2023-01-29T02:59:57;100519.81;;;0.38
58909;BMP280;44690;48.154;17.102;2023-01-29T03:01:42;100516.69;;;0.39
58909;BMP280;44690;48.154;17.102;2023-01-29T03:03:20;100530.03;;;0.39
58909;BMP280;44690;48.154;17.102;2023-01-29T03:04:57;100517.06;;;0.47
58909;BMP280;44690;48.154;17.102;2023-01-29T03:06:52;100509.97;;;0.44
58909;BMP280;44690;48.154;17.102;2023-01-29T03:08:42;100510.88;;;0.41
58909;BMP280;44690;48.154;17.102;2023-01-29T03:11:51;100518.91;;;0.41
58909;BMP280;44690;48.154;17.102;2023-01-29T03:13:31;100520.09;;;0.40
58909;BMP280;44690;48.154;17.102;2023-01-29T03:15:10;100519.19;;;0.43
58909;BMP280;44690;48.154;17.102;2023-01-29T03:16:49;100519.53;;;0.36
58909;BMP280;44690;48.154;17.102;2023-01-29T03:18:22;100527.25;;;0.34
58909;BMP280;44690;48.154;17.102;2023-01-29T03:20:02;100517.78;;;0.33
58909;BMP280;44690;48.154;17.102;2023-01-29T03:21:49;100520.94;;;0.31
58909;BMP280;44690;48.154;17.102;2023-01-29T03:23:33;100517.97;;;0.29
58909;BMP280;44690;48.154;17.102;2023-01-29T03:25:24;100522.59;;;0.29
58909;BMP280;44690;48.154;17.102;2023-01-29T03:27:17;100524.53;;;0.28
58909;BMP280;44690;48.154;17.102;2023-01-29T03:29:10;100524.34;;;0.32
58909;BMP280;44690;48.154;17.102;2023-01-29T03:31:03;100530.16;;;0.30
58909;BMP280;44690;48.154;17.102;2023-01-29T03:33:04;100533.56;;;0.31
58909;BMP280;44690;48.154;17.102;2023-01-29T03:34:40;100530.88;;;0.31
58909;BMP280;44690;48.154;17.102;2023-01-29T03:36:22;100528.94;;;0.31
58909;BMP280;44690;48.154;17.102;2023-01-29T03:37:58;100527.91;;;0.29
58909;BMP280;44690;48.154;17.102;2023-01-29T03:39:31;100529.38;;;0.30
58909;BMP280;44690;48.154;17.102;2023-01-29T03:41:09;100528.66;;;0.29
58909;BMP280;44690;48.154;17.102;2023-01-29T03:42:55;100527.19;;;0.28
58909;BMP280;44690;48.154;17.102;2023-01-29T03:46:25;100529.13;;;0.28
58909;BMP280;44690;48.154;17.102;2023-01-29T03:54:41;100524.28;;;0.17
58909;BMP280;44690;48.154;17.102;2023-01-29T03:57:59;100524.13;;;0.20
58909;BMP280;44690;48.154;17.102;2023-01-29T04:01:38;100515.56;;;0.16
58909;BMP280;44690;48.154;17.102;2023-01-29T04:04:44;100511.72;;;0.17
58909;BMP280;44690;48.154;17.102;2023-01-29T04:06:19;100508.47;;;0.13
58909;BMP280;44690;48.154;17.102;2023-01-29T04:08:08;100511.16;;;0.13
58909;BMP280;44690;48.154;17.102;2023-01-29T04:11:48;100514.25;;;0.12
58909;BMP280;44690;48.154;17.102;2023-01-29T04:13:21;100512.63;;;0.14
58909;BMP280;44690;48.154;17.102;2023-01-29T04:14:54;100510.13;;;0.11
58909;BMP280;44690;48.154;17.102;2023-01-29T04:16:30;100507.63;;;0.07
58909;BMP280;44690;48.154;17.102;2023-01-29T04:18:20;100498.63;;;0.05
58909;BMP280;44690;48.154;17.102;2023-01-29T04:20:09;100495.94;;;0.05
58909;BMP280;44690;48.154;17.102;2023-01-29T04:21:44;100495.94;;;0.05
58909;BMP280;44690;48.154;17.102;2023-01-29T04:23:24;100497.59;;;0.02
58909;BMP280;44690;48.154;17.102;2023-01-29T04:24:58;100501.44;;;0.01
58909;BMP280;44690;48.154;17.102;2023-01-29T04:28:16;100493.88;;;-0.01
58909;BMP280;44690;48.154;17.102;2023-01-29T04:31:48;100499.22;;;-0.01
58909;BMP280;44690;48.154;17.102;2023-01-29T04:42:20;100511.91;;;-0.10
58909;BMP280;44690;48.154;17.102;2023-01-29T04:44:02;100509.38;;;-0.14
58909;BMP280;44690;48.154;17.102;2023-01-29T04:47:28;100514.72;;;-0.14
58909;BMP280;44690;48.154;17.102;2023-01-29T04:49:08;100517.13;;;-0.16
58909;BMP280;44690;48.154;17.102;2023-01-29T04:50:46;100517.28;;;-0.19
58909;BMP280;44690;48.154;17.102;2023-01-29T04:55:41;100525.56;;;-0.17
58909;BMP280;44690;48.154;17.102;2023-01-29T04:58:58;100513.31;;;-0.24
58909;BMP280;44690;48.154;17.102;2023-01-29T05:00:31;100510.34;;;-0.26
58909;BMP280;44690;48.154;17.102;2023-01-29T05:02:04;100515.09;;;-0.21
58909;BMP280;44690;48.154;17.102;2023-01-29T05:03:38;100511.38;;;-0.23
58909;BMP280;44690;48.154;17.102;2023-01-29T05:05:12;100522.50;;;-0.25
58909;BMP280;44690;48.154;17.102;2023-01-29T05:06:45;100528.28;;;-0.27
58909;BMP280;44690;48.154;17.102;2023-01-29T05:08:19;100520.44;;;-0.30
58909;BMP280;44690;48.154;17.102;2023-01-29T05:09:52;100516.00;;;-0.33
58909;BMP280;44690;48.154;17.102;2023-01-29T05:11:24;100523.88;;;-0.30
58909;BMP280;44690;48.154;17.102;2023-01-29T05:13:00;100518.25;;;-0.32
58909;BMP280;44690;48.154;17.102;2023-01-29T05:14:32;100520.16;;;-0.32
58909;BMP280;44690;48.154;17.102;2023-01-29T05:16:07;100524.75;;;-0.33
58909;BMP280;44690;48.154;17.102;2023-01-29T05:17:41;100518.25;;;-0.32
58909;BMP280;44690;48.154;17.102;2023-01-29T05:19:13;100508.31;;;-0.31
58909;BMP280;44690;48.154;17.102;2023-01-29T05:20:46;100515.41;;;-0.28
58909;BMP280;44690;48.154;17.102;2023-01-29T05:22:19;100513.22;;;-0.30
58909;BMP280;44690;48.154;17.102;2023-01-29T05:24:06;100512.44;;;-0.30
58909;BMP280;44690;48.154;17.102;2023-01-29T05:25:39;100509.94;;;-0.34
58909;BMP280;44690;48.154;17.102;2023-01-29T05:27:16;100519.31;;;-0.38
58909;BMP280;44690;48.154;17.102;2023-01-29T05:29:07;100521.22;;;-0.30
58909;BMP280;44690;48.154;17.102;2023-01-29T05:30:39;100514.38;;;-0.31
58909;BMP280;44690;48.154;17.102;2023-01-29T05:32:12;100513.22;;;-0.30
58909;BMP280;44690;48.154;17.102;2023-01-29T05:33:44;100510.38;;;-0.35
58909;BMP280;44690;48.154;17.102;2023-01-29T05:35:16;100508.91;;;-0.36
58909;BMP280;44690;48.154;17.102;2023-01-29T05:36:48;100515.56;;;-0.32
58909;BMP280;44690;48.154;17.102;2023-01-29T05:38:21;100519.13;;;-0.35
58909;BMP280;44690;48.154;17.102;2023-01-29T05:39:53;100508.44;;;-0.35
58909;BMP280;44690;48.154;17.102;2023-01-29T05:41:25;100520.31;;;-0.36
58909;BMP280;44690;48.154;17.102;2023-01-29T05:42:57;100522.69;;;-0.38
58909;BMP280;44690;48.154;17.102;2023-01-29T05:44:29;100522.69;;;-0.38
58909;BMP280;44690;48.154;17.102;2023-01-29T05:46:01;100513.97;;;-0.38
58909;BMP280;44690;48.154;17.102;2023-01-29T05:47:33;100513.97;;;-0.38
58909;BMP280;44690;48.154;17.102;2023-01-29T05:49:05;100512.19;;;-0.41
58909;BMP280;44690;48.154;17.102;2023-01-29T05:50:37;100513.84;;;-0.44
58909;BMP280;44690;48.154;17.102;2023-01-29T05:52:09;100518.16;;;-0.46
58909;BMP280;44690;48.154;17.102;2023-01-29T05:53:41;100520.81;;;-0.46
58909;BMP280;44690;48.154;17.102;2023-01-29T05:55:13;100525.06;;;-0.40
58909;BMP280;44690;48.154;17.102;2023-01-29T05:56:45;100521.41;;;-0.42
58909;BMP280;44690;48.154;17.102;2023-01-29T05:58:17;100519.31;;;-0.47
58909;BMP280;44690;48.154;17.102;2023-01-29T05:59:50;100512.34;;;-0.45
58909;BMP280;44690;48.154;17.102;2023-01-29T06:01:23;100513.25;;;-0.48
58909;BMP280;44690;48.154;17.102;2023-01-29T06:02:55;100511.94;;;-0.53
58909;BMP280;44690;48.154;17.102;2023-01-29T06:04:27;100510.94;;;-0.55
58909;BMP280;44690;48.154;17.102;2023-01-29T06:06:00;100515.34;;;-0.52
58909;BMP280;44690;48.154;17.102;2023-01-29T06:07:32;100509.75;;;-0.54
58909;BMP280;44690;48.154;17.102;2023-01-29T06:09:04;100505.78;;;-0.59
58909;BMP280;44690;48.154;17.102;2023-01-29T06:10:36;100507.41;;;-0.61
58909;BMP280;44690;48.154;17.102;2023-01-29T06:12:08;100504.72;;;-0.61
58909;BMP280;44690;48.154;17.102;2023-01-29T06:13:40;100507.41;;;-0.61
58909;BMP280;44690;48.154;17.102;2023-01-29T06:15:12;100498.97;;;-0.60
58909;BMP280;44690;48.154;17.102;2023-01-29T06:16:46;100491.41;;;-0.61
58909;BMP280;44690;48.154;17.102;2023-01-29T06:18:18;100499.56;;;-0.65
58909;BMP280;44690;48.154;17.102;2023-01-29T06:19:50;100489.09;;;-0.68
58909;BMP280;44690;48.154;17.102;2023-01-29T06:21:22;100501.53;;;-0.75
58909;BMP280;44690;48.154;17.102;2023-01-29T06:22:54;100493.28;;;-0.77
58909;BMP280;44690;48.154;17.102;2023-01-29T06:24:26;100484.25;;;-0.79
58909;BMP280;44690;48.154;17.102;2023-01-29T06:25:59;100489.44;;;-0.85
58909;BMP280;44690;48.154;17.102;2023-01-29T06:27:31;100487.84;;;-0.91
58909;BMP280;44690;48.154;17.102;2023-01-29T06:29:03;100494.06;;;-0.94
58909;BMP280;44690;48.154;17.102;2023-01-29T06:30:35;100493.66;;;-1.02
58909;BMP280;44690;48.154;17.102;2023-01-29T06:32:07;100492.34;;;-1.07
58909;BMP280;44690;48.154;17.102;2023-01-29T06:33:39;100499.00;;;-1.11
58909;BMP280;44690;48.154;17.102;2023-01-29T06:35:11;100500.34;;;-1.16
58909;BMP280;44690;48.154;17.102;2023-01-29T06:36:43;100497.09;;;-1.20
58909;BMP280;44690;48.154;17.102;2023-01-29T06:38:15;100491.63;;;-1.26
58909;BMP280;44690;48.154;17.102;2023-01-29T06:39:47;100501.41;;;-1.32
58909;BMP280;44690;48.154;17.102;2023-01-29T06:41:19;100506.56;;;-1.37
58909;BMP280;44690;48.154;17.102;2023-01-29T06:42:56;100504.94;;;-1.44
58909;BMP280;44690;48.154;17.102;2023-01-29T06:44:28;100520.63;;;-1.46
58909;BMP280;44690;48.154;17.102;2023-01-29T06:46:00;100513.69;;;-1.53
58909;BMP280;44690;48.154;17.102;2023-01-29T06:47:32;100526.25;;;-1.53
58909;BMP280;44690;48.154;17.102;2023-01-29T06:49:04;100521.53;;;-1.58
58909;BMP280;44690;48.154;17.102;2023-01-29T06:50:36;100519.00;;;-1.62
58909;BMP280;44690;48.154;17.102;2023-01-29T06:52:08;100521.97;;;-1.60
58909;BMP280;44690;48.154;17.102;2023-01-29T06:53:40;100522.09;;;-1.63
58909;BMP280;44690;48.154;17.102;2023-01-29T06:55:15;100520.34;;;-1.66
58909;BMP280;44690;48.154;17.102;2023-01-29T06:56:47;100529.94;;;-1.69
58909;BMP280;44690;48.154;17.102;2023-01-29T06:58:19;100532.31;;;-1.71
58909;BMP280;44690;48.154;17.102;2023-01-29T06:59:51;100528.16;;;-1.72
58909;BMP280;44690;48.154;17.102;2023-01-29T07:01:23;100535.00;;;-1.71
58909;BMP280;44690;48.154;17.102;2023-01-29T07:03:08;100527.44;;;-1.63
58909;BMP280;44690;48.154;17.102;2023-01-29T07:04:40;100519.47;;;-1.54
58909;BMP280;44690;48.154;17.102;2023-01-29T07:06:13;100530.41;;;-1.52
58909;BMP280;44690;48.154;17.102;2023-01-29T07:07:45;100531.72;;;-1.47
58909;BMP280;44690;48.154;17.102;2023-01-29T07:09:17;100533.03;;;-1.43
58909;BMP280;44690;48.154;17.102;2023-01-29T07:10:49;100537.03;;;-1.38
58909;BMP280;44690;48.154;17.102;2023-01-29T07:12:21;100538.81;;;-1.35
58909;BMP280;44690;48.154;17.102;2023-01-29T07:13:53;100534.09;;;-1.31
58909;BMP280;44690;48.154;17.102;2023-01-29T07:15:26;100526.69;;;-1.27
58909;BMP280;44690;48.154;17.102;2023-01-29T07:16:58;100532.16;;;-1.21
58909;BMP280;44690;48.154;17.102;2023-01-29T07:18:30;100529.50;;;-1.21
58909;BMP280;44690;48.154;17.102;2023-01-29T07:20:02;100541.47;;;-1.17
58909;BMP280;44690;48.154;17.102;2023-01-29T07:21:34;100536.56;;;-1.09
58909;BMP280;44690;48.154;17.102;2023-01-29T07:23:07;100537.91;;;-1.05
58909;BMP280;44690;48.154;17.102;2023-01-29T07:24:39;100528.28;;;-1.02
58909;BMP280;44690;48.154;17.102;2023-01-29T07:26:11;100525.16;;;-1.01
58909;BMP280;44690;48.154;17.102;2023-01-29T07:27:43;100528.41;;;-0.96
58909;BMP280;44690;48.154;17.102;2023-01-29T07:29:15;100532.53;;;-0.95
58909;BMP280;44690;48.154;17.102;2023-01-29T07:30:47;100530.34;;;-0.97
58909;BMP280;44690;48.154;17.102;2023-01-29T07:32:19;100538.56;;;-0.86
58909;BMP280;44690;48.154;17.102;2023-01-29T07:33:51;100530.56;;;-0.77
58909;BMP280;44690;48.154;17.102;2023-01-29T07:35:23;100533.34;;;-0.71
58909;BMP280;44690;48.154;17.102;2023-01-29T07:36:55;100539.88;;;-0.72
58909;BMP280;44690;48.154;17.102;2023-01-29T07:38:27;100533.78;;;-0.63
58909;BMP280;44690;48.154;17.102;2023-01-29T07:39:59;100526.34;;;-0.59
58909;BMP280;44690;48.154;17.102;2023-01-29T07:41:31;100529.25;;;-0.48
58909;BMP280;44690;48.154;17.102;2023-01-29T07:43:04;100522.88;;;-0.41
58909;BMP280;44690;48.154;17.102;2023-01-29T07:44:37;100521.78;;;-0.35
58909;BMP280;44690;48.154;17.102;2023-01-29T07:46:09;100522.31;;;-0.21
58909;BMP280;44690;48.154;17.102;2023-01-29T07:47:42;100529.38;;;-0.09
58909;BMP280;44690;48.154;17.102;2023-01-29T07:49:14;100524.00;;;0.00
58909;BMP280;44690;48.154;17.102;2023-01-29T07:50:52;100521.53;;;0.11
58909;BMP280;44690;48.154;17.102;2023-01-29T07:52:25;100516.13;;;0.20
58909;BMP280;44690;48.154;17.102;2023-01-29T07:53:56;100511.63;;;0.27
58909;BMP280;44690;48.154;17.102;2023-01-29T07:55:29;100511.22;;;0.34
58909;BMP280;44690;48.154;17.102;2023-01-29T07:57:01;100518.63;;;0.39
58909;BMP280;44690;48.154;17.102;2023-01-29T07:58:33;100513.84;;;0.43
58909;BMP280;44690;48.154;17.102;2023-01-29T08:00:07;100514.59;;;0.43
58909;BMP280;44690;48.154;17.102;2023-01-29T08:01:42;100522.31;;;0.41
58909;BMP280;44690;48.154;17.102;2023-01-29T08:03:15;100523.97;;;0.39
58909;BMP280;44690;48.154;17.102;2023-01-29T08:04:48;100527.75;;;0.32
58909;BMP280;44690;48.154;17.102;2023-01-29T08:06:20;100524.81;;;0.30
58909;BMP280;44690;48.154;17.102;2023-01-29T08:07:52;100523.78;;;0.28
58909;BMP280;44690;48.154;17.102;2023-01-29T08:09:37;100522.03;;;0.24
58909;BMP280;44690;48.154;17.102;2023-01-29T08:11:09;100524.41;;;0.22
58909;BMP280;44690;48.154;17.102;2023-01-29T08:12:41;100531.13;;;0.18
58909;BMP280;44690;48.154;17.102;2023-01-29T08:14:13;100538.44;;;0.08
58909;BMP280;44690;48.154;17.102;2023-01-29T08:15:45;100532.59;;;-0.05
58909;BMP280;44690;48.154;17.102;2023-01-29T08:17:18;100523.59;;;-0.08
58909;BMP280;44690;48.154;17.102;2023-01-29T08:18:50;100528.59;;;-0.24
58909;BMP280;44690;48.154;17.102;2023-01-29T08:20:22;100525.53;;;-0.41
58909;BMP280;44690;48.154;17.102;2023-01-29T08:21:54;100527.22;;;-0.53
58909;BMP280;44690;48.154;17.102;2023-01-29T08:23:26;100523.75;;;-0.68
58909;BMP280;44690;48.154;17.102;2023-01-29T08:24:58;100521.53;;;-0.79
58909;BMP280;44690;48.154;17.102;2023-01-29T08:26:50;100520.25;;;-0.93
58909;BMP280;44690;48.154;17.102;2023-01-29T08:28:22;100523.69;;;-1.02
58909;BMP280;44690;48.154;17.102;2023-01-29T08:29:54;100521.03;;;-1.02
58909;BMP280;44690;48.154;17.102;2023-01-29T08:31:26;100511.41;;;-1.08
58909;BMP280;44690;48.154;17.102;2023-01-29T08:32:58;100519.44;;;-1.17
58909;BMP280;44690;48.154;17.102;2023-01-29T08:34:30;100521.97;;;-1.23
58909;BMP280;44690;48.154;17.102;2023-01-29T08:36:02;100526.25;;;-1.26
58909;BMP280;44690;48.154;17.102;2023-01-29T08:37:34;100523.00;;;-1.30
58909;BMP280;44690;48.154;17.102;2023-01-29T08:39:06;100515.47;;;-1.31
58909;BMP280;44690;48.154;17.102;2023-01-29T08:40:38;100514.13;;;-1.36
58909;BMP280;44690;48.154;17.102;2023-01-29T08:42:11;100517.38;;;-1.41
58909;BMP280;44690;48.154;17.102;2023-01-29T08:43:42;100511.16;;;-1.38
58909;BMP280;44690;48.154;17.102;2023-01-29T08:45:15;100530.09;;;-1.27
58909;BMP280;44690;48.154;17.102;2023-01-29T08:46:47;100519.56;;;-1.21
58909;BMP280;44690;48.154;17.102;2023-01-29T08:48:19;100527.13;;;-1.29
58909;BMP280;44690;48.154;17.102;2023-01-29T08:49:51;100543.09;;;-1.29
58909;BMP280;44690;48.154;17.102;2023-01-29T08:51:23;100530.81;;;-1.17
58909;BMP280;44690;48.154;17.102;2023-01-29T08:52:56;100533.63;;;-1.20
58909;BMP280;44690;48.154;17.102;2023-01-29T08:54:29;100538.22;;;-1.21
58909;BMP280;44690;48.154;17.102;2023-01-29T08:56:01;100532.16;;;-1.21
58909;BMP280;44690;48.154;17.102;2023-01-29T08:57:33;100549.47;;;-1.17
58909;BMP280;44690;48.154;17.102;2023-01-29T08:59:05;100562.94;;;-1.11
58909;BMP280;44690;48.154;17.102;2023-01-29T09:00:37;100539.50;;;-1.07
58909;BMP280;44690;48.154;17.102;2023-01-29T09:02:09;100534.19;;;-1.07
58909;BMP280;44690;48.154;17.102;2023-01-29T09:03:42;100535.09;;;-1.10
58909;BMP280;44690;48.154;17.102;2023-01-29T09:05:15;100541.31;;;-1.13
58909;BMP280;44690;48.154;17.102;2023-01-29T09:06:47;100543.38;;;-1.08
58909;BMP280;44690;48.154;17.102;2023-01-29T09:08:19;100538.97;;;-1.11
58909;BMP280;44690;48.154;17.102;2023-01-29T09:09:51;100533.63;;;-1.11
58909;BMP280;44690;48.154;17.102;2023-01-29T09:11:23;100541.91;;;-1.09
58909;BMP280;44690;48.154;17.102;2023-01-29T09:12:55;100538.50;;;-1.10
58909;BMP280;44690;48.154;17.102;2023-01-29T09:14:27;100557.00;;;-1.06
58909;BMP280;44690;48.154;17.102;2023-01-29T09:16:00;100544.38;;;-0.96
58909;BMP280;44690;48.154;17.102;2023-01-29T09:17:32;100547.63;;;-0.92
58909;BMP280;44690;48.154;17.102;2023-01-29T09:19:04;100546.94;;;-1.02
58909;BMP280;44690;48.154;17.102;2023-01-29T09:20:36;100547.19;;;-1.00
58909;BMP280;44690;48.154;17.102;2023-01-29T09:22:09;100550.00;;;-0.94
58909;BMP280;44690;48.154;17.102;2023-01-29T09:23:42;100560.66;;;-0.94
58909;BMP280;44690;48.154;17.102;2023-01-29T09:25:14;100556.50;;;-0.95
58909;BMP280;44690;48.154;17.102;2023-01-29T09:26:47;100548.97;;;-0.97
58909;BMP280;44690;48.154;17.102;2023-01-29T09:28:19;100548.25;;;-0.97
58909;BMP280;44690;48.154;17.102;2023-01-29T09:29:51;100550.56;;;-0.90
58909;BMP280;44690;48.154;17.102;2023-01-29T09:31:23;100551.63;;;-0.88
58909;BMP280;44690;48.154;17.102;2023-01-29T09:32:55;100555.13;;;-0.82
58909;BMP280;44690;48.154;17.102;2023-01-29T09:34:27;100560.03;;;-0.80
58909;BMP280;44690;48.154;17.102;2023-01-29T09:36:01;100560.78;;;-0.80
58909;BMP280;44690;48.154;17.102;2023-01-29T09:37:33;100555.41;;;-0.70
58909;BMP280;44690;48.154;17.102;2023-01-29T09:39:05;100559.13;;;-0.68
58909;BMP280;44690;48.154;17.102;2023-01-29T09:43:51;100552.75;;;-0.70
58909;BMP280;44690;48.154;17.102;2023-01-29T09:45:24;100553.06;;;-0.78
58909;BMP280;44690;48.154;17.102;2023-01-29T09:46:57;100554.72;;;-0.80
58909;BMP280;44690;48.154;17.102;2023-01-29T09:48:31;100549.66;;;-0.78
58909;BMP280;44690;48.154;17.102;2023-01-29T09:50:06;100550.13;;;-0.80
58909;BMP280;44690;48.154;17.102;2023-01-29T09:51:48;100548.75;;;-0.75
58909;BMP280;44690;48.154;17.102;2023-01-29T09:53:24;100542.81;;;-0.70
58909;BMP280;44690;48.154;17.102;2023-01-29T09:56:33;100549.44;;;-0.56
58909;BMP280;44690;48.154;17.102;2023-01-29T09:58:19;100562.13;;;-0.42
58909;BMP280;44690;48.154;17.102;2023-01-29T09:59:51;100546.41;;;-0.40
58909;BMP280;44690;48.154;17.102;2023-01-29T10:10:48;100547.56;;;-0.32
58909;BMP280;44690;48.154;17.102;2023-01-29T10:14:13;100554.94;;;-0.27
58909;BMP280;44690;48.154;17.102;2023-01-29T10:16:35;100538.09;;;-0.33